createdAt,value
2022-11-29T00:02:12.603Z,39.00
2022-11-29T00:04:45.946Z,39.73
2022-11-29T00:07:15.133Z,41.35
2022-11-29T00:09:43.753Z,38.07
2022-11-29T00:12:12.629Z,35.93
2022-11-29T00:14:44.196Z,36.37
2022-11-29T00:17:15.806Z,39.03
2022-11-29T00:19:44.789Z,41.80
2022-11-29T00:22:14.366Z,37.53
2022-11-29T00:24:43.699Z,35.27
2022-11-29T00:27:12.755Z,39.77
2022-11-29T00:29:43.231Z,43.47
2022-11-29T00:32:14.136Z,39.20
2022-11-29T00:34:44.358Z,33.77
2022-11-29T00:37:16.305Z,36.03
2022-11-29T00:39:45.957Z,35.37
2022-11-29T00:42:15.091Z,39.40
2022-11-29T00:44:43.837Z,43.65
2022-11-29T00:47:17.811Z,35.83
2022-11-29T00:49:47.566Z,35.67
2022-11-29T00:52:19.288Z,38.07
2022-11-29T00:54:48.123Z,39.20
2022-11-29T00:57:16.965Z,41.27
2022-11-29T00:59:48.252Z,36.60
2022-11-29T01:02:19.132Z,34.17
2022-11-29T01:04:47.984Z,35.67
2022-11-29T01:07:17.019Z,35.83
2022-11-29T01:09:45.697Z,36.80
2022-11-29T01:12:14.291Z,36.47
2022-11-29T01:14:46.375Z,39.83
2022-11-29T01:17:18.003Z,32.90
2022-11-29T01:19:50.773Z,27.07
2022-11-29T01:22:20.183Z,38.23
2022-11-29T01:24:51.418Z,36.77
2022-11-29T01:30:25.791Z,40.03
2022-11-29T01:32:57.709Z,34.73
2022-11-29T01:35:31.255Z,35.20
2022-11-29T01:37:59.893Z,34.98
2022-11-29T01:40:28.832Z,36.03
2022-11-29T01:42:58.807Z,37.87
2022-11-29T01:45:27.619Z,40.43
2022-11-29T01:48:02.119Z,38.10
2022-11-29T01:50:31.030Z,40.13
2022-11-29T01:53:01.872Z,37.00
2022-11-29T01:58:36.603Z,34.07
2022-11-29T02:01:07.817Z,31.30
2022-11-29T02:03:41.292Z,39.20
2022-11-29T02:06:10.781Z,36.08
2022-11-29T02:08:42.978Z,35.80
2022-11-29T02:11:42.378Z,37.27
2022-11-29T02:14:29.467Z,34.40
2022-11-29T02:17:10.228Z,44.27
2022-11-29T02:20:11.473Z,39.00
2022-11-29T02:22:48.418Z,32.70
2022-11-29T02:25:35.916Z,41.00
2022-11-29T02:28:46.445Z,33.70
2022-11-29T02:31:39.221Z,36.67
2022-11-29T02:34:28.276Z,40.83
2022-11-29T02:37:20.609Z,38.10
2022-11-29T02:40:43.842Z,36.83
2022-11-29T02:43:30.231Z,40.33
2022-11-29T02:46:13.274Z,44.70
2022-11-29T02:48:53.180Z,36.20
2022-11-29T02:51:31.015Z,43.40
2022-11-29T02:54:06.470Z,40.10
2022-11-29T02:56:43.233Z,46.03
2022-11-29T02:59:26.733Z,34.33
2022-11-29T03:02:05.336Z,38.73
2022-11-29T03:04:43.745Z,37.93
2022-11-29T03:07:21.868Z,38.17
2022-11-29T03:10:02.234Z,36.87
2022-11-29T03:12:42.365Z,36.67
2022-11-29T03:15:22.527Z,41.07
2022-11-29T03:18:03.758Z,36.27
2022-11-29T03:20:48.490Z,46.33
2022-11-29T03:23:25.352Z,41.47
2022-11-29T03:26:01.297Z,36.47
2022-11-29T03:28:34.194Z,41.37
2022-11-29T03:31:10.429Z,37.77
2022-11-29T03:33:50.524Z,37.73
2022-11-29T03:36:29.199Z,35.40
2022-11-29T03:39:04.706Z,40.37
2022-11-29T03:41:41.372Z,43.50
2022-11-29T03:44:18.023Z,41.60
2022-11-29T03:46:54.309Z,42.87
2022-11-29T03:49:26.958Z,31.43
2022-11-29T03:52:10.004Z,30.60
2022-11-29T03:54:53.338Z,37.13
2022-11-29T03:57:31.325Z,36.03
2022-11-29T04:00:05.526Z,37.50
2022-11-29T04:03:14.836Z,34.63
2022-11-29T04:06:15.737Z,46.10
2022-11-29T04:09:10.818Z,38.53
2022-11-29T04:12:04.411Z,39.93
2022-11-29T04:18:33.942Z,40.03
2022-11-29T04:21:26.534Z,36.33
2022-11-29T04:24:31.575Z,37.17
2022-11-29T04:27:27.854Z,35.57
2022-11-29T04:30:12.923Z,37.53
2022-11-29T04:33:16.805Z,35.93
2022-11-29T04:36:10.158Z,35.80
2022-11-29T04:38:59.520Z,33.33
2022-11-29T04:41:53.648Z,43.13
2022-11-29T04:44:53.621Z,40.87
2022-11-29T04:47:48.398Z,41.07
2022-11-29T04:50:38.324Z,37.47
2022-11-29T04:53:34.952Z,43.70
2022-11-29T04:56:15.679Z,45.67
2022-11-29T04:58:53.168Z,45.27
2022-11-29T05:01:38.636Z,51.07
2022-11-29T05:04:17.258Z,46.53
2022-11-29T05:06:58.345Z,58.73
2022-11-29T05:09:36.551Z,47.33
2022-11-29T05:12:12.844Z,55.83
2022-11-29T05:14:56.552Z,54.57
2022-11-29T05:17:43.054Z,59.27
2022-11-29T05:20:26.160Z,62.97
2022-11-29T05:23:12.095Z,55.60
2022-11-29T05:25:50.651Z,63.57
2022-11-29T05:28:25.938Z,59.50
2022-11-29T05:31:13.405Z,55.87
2022-11-29T05:34:01.299Z,59.30
2022-11-29T05:36:39.573Z,63.53
2022-11-29T05:39:27.498Z,55.97
2022-11-29T05:42:21.284Z,53.37
2022-11-29T05:44:58.762Z,54.53
2022-11-29T05:47:36.692Z,52.77
2022-11-29T05:50:18.551Z,49.13
2022-11-29T05:52:57.664Z,53.70
2022-11-29T05:55:41.120Z,54.27
2022-11-29T05:58:29.952Z,58.20
2022-11-29T06:01:09.564Z,50.33
2022-11-29T06:03:50.708Z,69.77
2022-11-29T06:06:29.656Z,64.27
2022-11-29T06:09:07.498Z,66.40
2022-11-29T06:11:43.286Z,64.03
2022-11-29T06:14:27.872Z,68.87
2022-11-29T06:17:23.430Z,72.53
2022-11-29T06:20:13.847Z,64.07
2022-11-29T06:22:57.007Z,63.93
2022-11-29T06:25:46.578Z,70.00
2022-11-29T06:28:34.185Z,75.13
2022-11-29T06:31:12.333Z,68.67
2022-11-29T06:33:49.402Z,69.40
2022-11-29T06:36:22.958Z,76.47
2022-11-29T06:38:52.179Z,79.58
2022-11-29T06:41:23.479Z,67.43
2022-11-29T06:43:54.714Z,71.37
2022-11-29T06:46:44.999Z,72.23
2022-11-29T06:49:24.121Z,74.03
2022-11-29T06:52:07.068Z,78.63
2022-11-29T06:54:48.514Z,69.63
2022-11-29T06:57:24.603Z,78.27
2022-11-29T07:00:03.996Z,73.90
2022-11-29T07:02:46.349Z,75.17
2022-11-29T07:05:23.364Z,78.10
2022-11-29T07:07:58.008Z,83.10
2022-11-29T07:10:28.999Z,86.27
2022-11-29T07:13:01.536Z,83.07
2022-11-29T07:15:35.470Z,81.10
2022-11-29T07:18:17.545Z,79.47
2022-11-29T07:20:56.792Z,77.30
2022-11-29T07:23:33.369Z,94.47
2022-11-29T07:26:10.747Z,83.57
2022-11-29T07:28:50.957Z,95.47
2022-11-29T07:31:26.558Z,88.63
2022-11-29T07:34:04.391Z,81.17
2022-11-29T07:36:45.244Z,84.37
2022-11-29T07:39:22.809Z,84.90
2022-11-29T07:42:02.288Z,79.80
2022-11-29T07:44:44.441Z,75.40
2022-11-29T07:47:13.890Z,76.80
2022-11-29T07:49:48.032Z,72.73
2022-11-29T07:52:17.523Z,71.67
2022-11-29T07:54:47.006Z,66.97
2022-11-29T07:57:16.108Z,75.00
2022-11-29T07:59:45.446Z,71.50
2022-11-29T08:02:14.206Z,81.53
2022-11-29T08:04:46.012Z,76.53
2022-11-29T08:07:14.981Z,79.77
2022-11-29T08:09:46.573Z,75.90
2022-11-29T08:12:15.775Z,62.53
2022-11-29T08:14:47.023Z,72.07
2022-11-29T08:17:18.686Z,41.93
2022-11-29T08:19:47.774Z,72.73
2022-11-29T08:22:16.493Z,75.67
2022-11-29T08:24:45.954Z,72.90
2022-11-29T08:27:14.879Z,63.70
2022-11-29T08:29:44.123Z,64.83
2022-11-29T08:32:12.856Z,71.83
2022-11-29T08:34:41.612Z,62.63
2022-11-29T08:37:13.963Z,61.47
2022-11-29T08:39:45.458Z,65.63
2022-11-29T08:42:14.203Z,59.50
2022-11-29T08:44:43.774Z,61.90
2022-11-29T08:47:31.229Z,55.87
2022-11-29T08:50:02.596Z,55.20
2022-11-29T08:52:52.959Z,63.93
2022-11-29T08:55:23.703Z,67.87
2022-11-29T08:58:00.450Z,66.43
2022-11-29T09:00:29.327Z,59.87
2022-11-29T09:03:18.339Z,65.30
2022-11-29T09:05:47.082Z,58.73
2022-11-29T09:08:15.902Z,55.97
2022-11-29T09:10:45.479Z,58.87
2022-11-29T09:13:14.911Z,59.83
2022-11-29T09:15:46.068Z,53.17
2022-11-29T09:18:14.764Z,54.73
2022-11-29T09:20:53.285Z,56.10
2022-11-29T09:23:21.884Z,52.97
2022-11-29T09:25:53.673Z,52.23
2022-11-29T09:28:22.300Z,50.00
2022-11-29T09:30:50.984Z,55.40
2022-11-29T09:33:19.629Z,54.40
2022-11-29T09:35:48.561Z,55.87
2022-11-29T09:38:17.330Z,43.47
2022-11-29T09:40:52.715Z,52.25
2022-11-29T09:43:29.796Z,53.43
2022-11-29T09:46:12.511Z,44.70
2022-11-29T09:49:04.812Z,46.13
2022-11-29T09:51:44.317Z,45.37
2022-11-29T09:54:27.457Z,41.77
2022-11-29T09:56:57.162Z,46.40
2022-11-29T09:59:32.311Z,48.83
2022-11-29T10:02:14.856Z,53.37
2022-11-29T10:04:53.852Z,41.67
2022-11-29T10:07:28.028Z,36.00
2022-11-29T10:12:36.804Z,39.30
2022-11-29T10:15:13.211Z,39.53
2022-11-29T10:17:50.711Z,39.27
2022-11-29T10:20:22.673Z,36.73
2022-11-29T10:22:55.643Z,38.10
2022-11-29T10:25:28.722Z,34.93
2022-11-29T10:27:57.612Z,39.13
2022-11-29T10:30:26.604Z,36.33
2022-11-29T10:33:00.100Z,32.63
2022-11-29T10:35:30.024Z,35.15
2022-11-29T10:40:56.235Z,33.07
2022-11-29T10:43:26.196Z,33.50
2022-11-29T10:45:55.778Z,34.60
2022-11-29T10:48:34.084Z,37.33
2022-11-29T10:51:16.015Z,31.37
2022-11-29T10:53:49.371Z,34.97
2022-11-29T10:56:23.644Z,34.37
2022-11-29T11:01:28.597Z,32.83
2022-11-29T11:04:00.108Z,34.73
2022-11-29T11:06:46.594Z,29.67
2022-11-29T11:09:22.244Z,32.87
2022-11-29T11:11:55.699Z,30.37
2022-11-29T11:14:26.594Z,30.60
2022-11-29T11:16:56.209Z,31.73
2022-11-29T11:19:28.618Z,32.13
2022-11-29T11:21:59.267Z,33.37
2022-11-29T11:24:30.698Z,35.83
2022-11-29T11:27:00.659Z,34.60
2022-11-29T11:29:36.800Z,34.10
2022-11-29T11:32:07.627Z,34.57
2022-11-29T11:34:37.574Z,31.57
2022-11-29T11:37:19.578Z,33.27
2022-11-29T11:39:50.617Z,31.37
2022-11-29T11:42:37.938Z,32.43
2022-11-29T11:45:32.308Z,32.33
2022-11-29T11:48:08.123Z,31.10
2022-11-29T11:50:44.192Z,31.50
2022-11-29T11:53:23.589Z,34.33
2022-11-29T11:55:59.493Z,34.30
2022-11-29T11:58:34.331Z,31.67
2022-11-29T12:01:17.296Z,33.00
2022-11-29T12:03:53.039Z,30.17
2022-11-29T12:06:48.990Z,34.33
2022-11-29T12:09:40.426Z,27.37
2022-11-29T12:12:13.997Z,31.30
2022-11-29T12:14:53.576Z,31.20
2022-11-29T12:17:33.509Z,29.90
2022-11-29T12:20:22.449Z,28.57
2022-11-29T12:23:06.240Z,24.60
2022-11-29T12:25:48.757Z,28.20
2022-11-29T12:28:20.802Z,29.65
2022-11-29T12:30:58.795Z,29.93
2022-11-29T12:33:38.603Z,34.73
2022-11-29T12:36:20.820Z,31.53
2022-11-29T12:39:14.990Z,30.20
2022-11-29T12:41:54.261Z,36.13
2022-11-29T12:44:36.449Z,35.10
2022-11-29T12:50:29.820Z,40.10
2022-11-29T12:53:10.574Z,39.03
2022-11-29T12:55:53.439Z,43.33
2022-11-29T12:58:29.720Z,42.17
2022-11-29T13:01:10.754Z,43.00
2022-11-29T13:03:51.933Z,40.47
2022-11-29T13:06:29.943Z,38.77
2022-11-29T13:09:32.479Z,34.77
2022-11-29T13:12:06.536Z,44.05
2022-11-29T13:14:44.189Z,41.90
2022-11-29T13:17:27.797Z,36.47
2022-11-29T13:20:00.943Z,40.47
2022-11-29T13:22:41.272Z,40.33
2022-11-29T13:25:19.410Z,44.90
2022-11-29T13:27:54.304Z,34.87
2022-11-29T13:30:22.949Z,46.83
2022-11-29T13:32:57.707Z,35.83
2022-11-29T13:35:36.184Z,48.07
2022-11-29T13:38:13.527Z,45.00
2022-11-29T13:40:55.955Z,34.53
2022-11-29T13:43:33.704Z,33.60
2022-11-29T13:46:15.829Z,34.97
2022-11-29T13:48:50.369Z,29.37
2022-11-29T13:51:32.777Z,39.50
2022-11-29T13:54:04.491Z,32.47
2022-11-29T13:56:42.438Z,34.63
2022-11-29T13:59:18.459Z,37.83
2022-11-29T14:01:50.809Z,46.07
2022-11-29T14:04:27.895Z,37.70
2022-11-29T14:07:10.378Z,31.93
2022-11-29T14:09:48.930Z,30.77
2022-11-29T14:12:37.206Z,33.30
2022-11-29T14:15:23.667Z,30.47
2022-11-29T14:17:55.080Z,34.43
2022-11-29T14:21:00.397Z,32.47
2022-11-29T14:23:46.383Z,32.03
2022-11-29T14:26:33.040Z,32.13
2022-11-29T14:29:21.897Z,32.07
2022-11-29T14:31:53.164Z,32.63
2022-11-29T14:34:46.507Z,37.43
2022-11-29T14:37:50.197Z,33.45
2022-11-29T14:40:31.159Z,33.30
2022-11-29T14:43:02.356Z,35.20
2022-11-29T14:45:33.089Z,34.13
2022-11-29T14:48:02.244Z,32.33
2022-11-29T14:50:34.600Z,32.50
2022-11-29T14:53:06.369Z,31.77
2022-11-29T14:55:37.033Z,32.30
2022-11-29T14:58:16.827Z,37.30
2022-11-29T15:01:10.571Z,35.30
2022-11-29T15:03:48.594Z,46.97
2022-11-29T15:06:25.551Z,44.83
2022-11-29T15:09:01.663Z,41.40
2022-11-29T15:11:50.102Z,42.67
2022-11-29T15:14:31.296Z,33.57
2022-11-29T15:17:12.125Z,85.17
2022-11-29T15:20:02.708Z,52.97
2022-11-29T15:22:43.407Z,36.63
2022-11-29T15:25:14.410Z,38.90
2022-11-29T15:27:53.803Z,45.83
2022-11-29T15:30:30.387Z,40.63
2022-11-29T15:33:00.717Z,55.93
2022-11-29T15:35:31.397Z,39.77
2022-11-29T15:38:00.630Z,39.60
2022-11-29T15:40:34.839Z,38.47
2022-11-29T15:43:15.885Z,34.83
2022-11-29T15:45:48.669Z,35.40
2022-11-29T15:48:22.813Z,39.40
2022-11-29T15:53:30.019Z,39.60
2022-11-29T15:56:00.824Z,40.93
2022-11-29T15:58:33.473Z,50.77
2022-11-29T16:01:03.417Z,81.57
2022-11-29T16:03:34.832Z,55.30
2022-11-29T16:06:15.581Z,40.23
2022-11-29T16:08:47.907Z,53.90
2022-11-29T16:11:21.032Z,41.73
2022-11-29T16:14:05.175Z,46.20
2022-11-29T16:16:37.388Z,60.15
2022-11-29T16:19:18.770Z,126.03
2022-11-29T16:22:04.182Z,118.50
2022-11-29T16:24:34.729Z,62.20
2022-11-29T16:27:04.935Z,45.33
2022-11-29T16:29:41.027Z,73.43
2022-11-29T16:32:27.735Z,157.80
2022-11-29T16:35:13.360Z,72.67
2022-11-29T16:37:44.843Z,84.93
2022-11-29T16:40:22.583Z,146.70
2022-11-29T16:43:20.140Z,122.00
2022-11-29T16:46:09.257Z,66.47
2022-11-29T16:48:38.085Z,50.60
2022-11-29T16:51:24.711Z,93.23
2022-11-29T16:53:55.418Z,41.17
2022-11-29T16:56:28.899Z,53.73
2022-11-29T16:59:25.033Z,73.33
2022-11-29T17:01:54.500Z,74.53
2022-11-29T17:04:24.668Z,42.65
2022-11-29T17:06:55.294Z,44.13
2022-11-29T17:09:26.133Z,122.63
2022-11-29T17:11:56.037Z,91.73
2022-11-29T17:14:24.679Z,69.30
2022-11-29T17:16:53.562Z,45.90
2022-11-29T17:19:23.286Z,37.80
2022-11-29T17:21:53.823Z,37.47
2022-11-29T17:24:24.219Z,31.20
2022-11-29T17:26:52.921Z,32.10
2022-11-29T17:29:24.487Z,30.53
2022-11-29T17:31:53.379Z,30.17
2022-11-29T17:34:22.268Z,38.27
2022-11-29T17:36:52.854Z,35.33
2022-11-29T17:39:22.218Z,32.70
2022-11-29T17:41:51.034Z,31.47
2022-11-29T17:44:20.063Z,37.33
2022-11-29T17:46:51.717Z,34.17
2022-11-29T17:49:20.476Z,32.85
2022-11-29T17:51:52.170Z,53.03
2022-11-29T17:54:22.147Z,41.17
2022-11-29T17:56:51.447Z,45.40
2022-11-29T17:59:20.554Z,42.57
2022-11-29T18:01:49.496Z,40.13
2022-11-29T18:04:20.077Z,41.93
2022-11-29T18:06:51.426Z,39.60
2022-11-29T18:09:22.363Z,39.20
2022-11-29T18:11:51.980Z,39.53
2022-11-29T18:14:24.843Z,33.03
2022-11-29T18:16:55.032Z,44.15
2022-11-29T18:19:31.263Z,39.23
2022-11-29T18:22:02.216Z,32.87
2022-11-29T18:24:30.848Z,34.43
2022-11-29T18:27:01.922Z,42.00
2022-11-29T18:29:38.952Z,45.03
2022-11-29T18:32:14.482Z,39.33
2022-11-29T18:34:47.550Z,41.30
2022-11-29T18:37:27.571Z,34.80
2022-11-29T18:40:07.944Z,32.17
2022-11-29T18:42:36.559Z,35.43
2022-11-29T18:45:09.890Z,34.60
2022-11-29T18:47:38.527Z,34.10
2022-11-29T18:50:16.029Z,35.27
2022-11-29T18:52:46.139Z,34.73
2022-11-29T18:55:14.955Z,35.37
2022-11-29T18:57:43.641Z,36.43
2022-11-29T19:00:14.947Z,36.67
2022-11-29T19:02:43.707Z,35.07
2022-11-29T19:05:13.166Z,33.30
2022-11-29T19:07:41.896Z,35.50
2022-11-29T19:10:12.108Z,33.43
2022-11-29T19:12:40.972Z,41.00
2022-11-29T19:15:11.460Z,35.97
2022-11-29T19:17:43.162Z,37.10
2022-11-29T19:20:16.443Z,40.73
2022-11-29T19:22:46.218Z,35.30
2022-11-29T19:25:15.228Z,41.40
2022-11-29T19:27:46.691Z,35.53
2022-11-29T19:30:19.063Z,36.47
2022-11-29T19:32:48.464Z,34.17
2022-11-29T19:35:17.367Z,39.90
2022-11-29T19:37:48.785Z,37.43
2022-11-29T19:40:17.461Z,38.20
2022-11-29T19:42:48.605Z,41.50
2022-11-29T19:45:18.156Z,40.80
2022-11-29T19:47:49.597Z,41.47
2022-11-29T19:50:18.346Z,36.53
2022-11-29T19:52:48.515Z,34.87
2022-11-29T19:55:17.163Z,34.57
2022-11-29T19:57:46.526Z,55.37
2022-11-29T20:00:17.461Z,46.80
2022-11-29T20:02:46.899Z,47.07
2022-11-29T20:05:15.833Z,38.93
2022-11-29T20:07:44.923Z,36.03
2022-11-29T20:10:15.219Z,38.33
2022-11-29T20:12:43.885Z,34.00
2022-11-29T20:15:12.642Z,33.63
2022-11-29T20:17:41.284Z,37.50
2022-11-29T20:20:15.695Z,38.53
2022-11-29T20:22:44.454Z,30.15
2022-11-29T20:25:13.016Z,40.40
2022-11-29T20:27:41.555Z,35.37
2022-11-29T20:30:14.778Z,36.00
2022-11-29T20:32:44.430Z,41.80
2022-11-29T20:35:16.676Z,35.67
2022-11-29T20:38:02.217Z,32.33
2022-11-29T20:40:39.647Z,42.73
2022-11-29T20:43:19.855Z,37.47
2022-11-29T20:45:51.523Z,34.93
2022-11-29T20:48:22.663Z,33.73
2022-11-29T20:50:57.533Z,35.70
2022-11-29T20:53:38.451Z,37.87
2022-11-29T20:56:09.592Z,49.87
2022-11-29T20:58:39.318Z,36.80
2022-11-29T21:01:08.156Z,33.70
2022-11-29T21:03:37.273Z,29.80
2022-11-29T21:06:07.037Z,33.73
2022-11-29T21:11:10.432Z,32.03
2022-11-29T21:13:45.109Z,35.40
2022-11-29T21:16:17.619Z,34.43
2022-11-29T21:18:49.293Z,34.40
2022-11-29T21:21:24.637Z,33.80
2022-11-29T21:24:05.098Z,34.27
2022-11-29T21:26:42.021Z,33.00
2022-11-29T21:29:18.041Z,31.00
2022-11-29T21:31:50.783Z,35.97
2022-11-29T21:34:19.865Z,32.83
2022-11-29T21:36:54.803Z,37.40
2022-11-29T21:39:31.919Z,33.30
2022-11-29T21:42:00.920Z,36.10
2022-11-29T21:44:29.989Z,36.27
2022-11-29T21:46:58.640Z,35.20
2022-11-29T21:49:28.001Z,32.20
2022-11-29T21:51:57.191Z,39.07
2022-11-29T21:54:25.924Z,34.93
2022-11-29T21:56:54.515Z,36.23
2022-11-29T21:59:24.413Z,32.93
2022-11-29T22:01:54.749Z,37.83
2022-11-29T22:04:24.574Z,33.43
2022-11-29T22:06:55.210Z,35.97
2022-11-29T22:09:26.460Z,29.23
2022-11-29T22:11:55.002Z,34.40
2022-11-29T22:14:23.845Z,34.10
2022-11-29T22:16:54.305Z,31.07
2022-11-29T22:19:24.737Z,34.63
2022-11-29T22:21:56.377Z,33.20
2022-11-29T22:24:27.702Z,37.35
2022-11-29T22:26:57.040Z,38.83
2022-11-29T22:29:25.642Z,39.57
2022-11-29T22:31:55.948Z,41.37
2022-11-29T22:34:26.134Z,36.97
2022-11-29T22:36:54.994Z,42.10
2022-11-29T22:39:24.532Z,43.07
2022-11-29T22:41:54.948Z,38.33
2022-11-29T22:44:24.374Z,40.00
2022-11-29T22:46:53.335Z,42.30
2022-11-29T22:49:21.973Z,47.80
2022-11-29T22:51:51.690Z,49.07
2022-11-29T22:54:20.376Z,44.40
2022-11-29T22:56:51.825Z,54.17
2022-11-29T22:59:20.408Z,52.37
2022-11-29T23:01:51.240Z,48.83
2022-11-29T23:04:22.304Z,46.67
2022-11-29T23:06:56.192Z,49.53
2022-11-29T23:09:28.602Z,57.73
2022-11-29T23:11:58.046Z,52.63
2022-11-29T23:14:26.635Z,57.47
2022-11-29T23:16:58.172Z,58.93
2022-11-29T23:19:26.856Z,55.10
2022-11-29T23:21:56.498Z,57.13
2022-11-29T23:24:25.033Z,56.37
2022-11-29T23:27:00.588Z,52.47
2022-11-29T23:29:29.169Z,61.03
2022-11-29T23:31:57.855Z,49.20
2022-11-29T23:34:26.982Z,49.07
2022-11-29T23:36:55.601Z,49.27
2022-11-29T23:39:24.120Z,49.37
2022-11-29T23:41:52.661Z,47.90
2022-11-29T23:44:24.489Z,49.83
2022-11-29T23:46:55.494Z,40.27
2022-11-29T23:49:24.102Z,42.63
2022-11-29T23:51:53.938Z,40.10
2022-11-29T23:54:23.604Z,35.83
2022-11-29T23:56:52.146Z,30.93
2022-11-29T23:59:24.010Z,35.00
